createdAt,value
2023-03-18T00:02:28.960Z,11.90
2023-03-18T00:05:16.408Z,11.50
2023-03-18T00:08:05.369Z,11.40
2023-03-18T00:10:53.103Z,11.40
2023-03-18T00:13:41.778Z,11.40
2023-03-18T00:16:29.427Z,11.40
2023-03-18T00:19:18.868Z,11.30
2023-03-18T00:22:06.487Z,11.30
2023-03-18T00:24:53.958Z,11.30
2023-03-18T00:27:41.989Z,11.50
2023-03-18T00:30:29.384Z,11.90
2023-03-18T00:33:17.956Z,11.80
2023-03-18T00:36:10.465Z,11.70
2023-03-18T00:38:58.485Z,11.60
2023-03-18T00:41:46.165Z,11.30
2023-03-18T00:44:34.001Z,11.10
2023-03-18T00:47:21.426Z,11.00
2023-03-18T00:50:10.386Z,11.10
2023-03-18T00:52:59.711Z,11.20
2023-03-18T00:55:48.010Z,11.20
2023-03-18T00:58:35.176Z,11.10
2023-03-18T01:01:23.008Z,11.10
2023-03-18T01:04:11.651Z,11.20
2023-03-18T01:06:58.958Z,11.20
2023-03-18T01:09:48.213Z,11.10
2023-03-18T01:12:35.581Z,11.10
2023-03-18T01:15:24.088Z,11.10
2023-03-18T01:18:12.462Z,11.10
2023-03-18T01:21:00.177Z,11.10
2023-03-18T01:23:51.600Z,11.10
2023-03-18T01:26:40.558Z,11.10
2023-03-18T01:29:28.186Z,11.10
2023-03-18T01:32:16.217Z,11.10
2023-03-18T01:35:03.510Z,11.10
2023-03-18T01:37:51.579Z,11.10
2023-03-18T01:40:41.978Z,11.00
2023-03-18T01:43:35.317Z,11.10
2023-03-18T01:46:37.130Z,11.00
2023-03-18T01:49:29.075Z,11.10
2023-03-18T01:52:22.006Z,11.10
2023-03-18T01:55:15.422Z,11.10
2023-03-18T01:58:07.492Z,11.10
2023-03-18T02:01:00.694Z,11.20
2023-03-18T02:03:51.185Z,11.20
2023-03-18T02:06:39.632Z,11.20
2023-03-18T02:09:26.776Z,11.20
2023-03-18T02:12:16.857Z,11.20
2023-03-18T02:15:09.159Z,11.30
2023-03-18T02:18:06.633Z,11.20
2023-03-18T02:21:07.373Z,11.20
2023-03-18T02:24:04.395Z,11.20
2023-03-18T02:26:57.481Z,11.20
2023-03-18T02:29:54.428Z,11.30
2023-03-18T02:32:43.925Z,11.30
2023-03-18T02:35:32.645Z,11.30
2023-03-18T02:38:21.448Z,11.20
2023-03-18T02:41:15.417Z,11.30
2023-03-18T02:44:03.437Z,11.30
2023-03-18T02:47:03.003Z,11.40
2023-03-18T02:49:51.633Z,11.40
2023-03-18T02:52:38.962Z,11.20
2023-03-18T02:55:27.295Z,11.20
2023-03-18T02:58:14.607Z,11.20
2023-03-18T03:01:08.278Z,11.20
2023-03-18T03:03:56.952Z,11.20
2023-03-18T03:06:45.312Z,11.20
2023-03-18T03:09:34.248Z,11.20
2023-03-18T03:12:21.487Z,11.20
2023-03-18T03:15:14.441Z,11.20
2023-03-18T03:18:07.688Z,11.10
2023-03-18T03:20:57.366Z,11.20
2023-03-18T03:23:44.895Z,11.20
2023-03-18T03:26:34.482Z,11.30
2023-03-18T03:29:21.793Z,11.10
2023-03-18T03:32:10.048Z,11.00
2023-03-18T03:34:57.063Z,10.90
2023-03-18T03:37:45.406Z,11.00
2023-03-18T03:40:32.542Z,11.00
2023-03-18T03:43:19.949Z,11.10
2023-03-18T03:46:08.059Z,11.00
2023-03-18T03:48:56.649Z,10.90
2023-03-18T03:51:47.291Z,10.90
2023-03-18T03:54:36.518Z,10.90
2023-03-18T03:57:24.969Z,10.80
2023-03-18T04:00:16.695Z,10.90
2023-03-18T04:03:09.552Z,10.80
2023-03-18T04:05:56.806Z,10.90
2023-03-18T04:08:47.408Z,10.90
2023-03-18T04:11:37.259Z,10.80
2023-03-18T04:14:25.099Z,10.80
2023-03-18T04:17:12.433Z,10.70
2023-03-18T04:19:59.830Z,10.60
2023-03-18T04:22:50.509Z,10.70
2023-03-18T04:25:40.429Z,10.90
2023-03-18T04:28:29.112Z,10.80
2023-03-18T04:31:16.758Z,10.60
2023-03-18T04:34:03.838Z,10.40
2023-03-18T04:36:51.366Z,10.40
2023-03-18T04:39:39.616Z,10.60
2023-03-18T04:42:30.847Z,10.60
2023-03-18T04:45:20.260Z,10.60
2023-03-18T04:48:07.616Z,10.60
2023-03-18T04:50:59.861Z,10.40
2023-03-18T04:53:49.931Z,10.70
2023-03-18T04:56:37.135Z,10.50
2023-03-18T04:59:24.191Z,10.40
2023-03-18T05:02:14.503Z,10.30
2023-03-18T05:05:02.155Z,10.20
2023-03-18T05:07:51.700Z,10.10
2023-03-18T05:10:41.447Z,10.00
2023-03-18T05:13:32.067Z,10.00
2023-03-18T05:16:20.243Z,10.10
2023-03-18T05:19:10.911Z,10.10
2023-03-18T05:22:04.201Z,10.10
2023-03-18T05:24:51.956Z,10.00
2023-03-18T05:27:41.901Z,9.90
2023-03-18T05:30:40.424Z,9.90
2023-03-18T05:33:29.978Z,9.90
2023-03-18T05:36:18.856Z,9.70
2023-03-18T05:39:16.264Z,9.70
2023-03-18T05:42:04.837Z,9.90
2023-03-18T05:44:52.062Z,9.80
2023-03-18T05:47:42.181Z,9.80
2023-03-18T05:50:33.288Z,9.80
2023-03-18T05:53:24.032Z,9.90
2023-03-18T05:56:18.974Z,9.90
2023-03-18T05:59:10.204Z,9.90
2023-03-18T06:02:03.437Z,10.10
2023-03-18T06:04:50.678Z,9.90
2023-03-18T06:07:38.003Z,9.90
2023-03-18T06:10:26.837Z,9.90
2023-03-18T06:13:15.377Z,9.90
2023-03-18T06:16:03.897Z,10.00
2023-03-18T06:18:51.294Z,10.00
2023-03-18T06:21:39.334Z,10.00
2023-03-18T06:24:26.554Z,10.00
2023-03-18T06:27:17.121Z,10.10
2023-03-18T06:30:07.781Z,10.00
2023-03-18T06:32:57.430Z,10.10
2023-03-18T06:35:49.417Z,10.10
2023-03-18T06:38:36.697Z,10.10
2023-03-18T06:41:24.325Z,10.20
2023-03-18T06:44:24.678Z,10.10
2023-03-18T06:47:14.976Z,10.10
2023-03-18T06:50:11.072Z,10.00
2023-03-18T06:52:58.234Z,10.00
2023-03-18T06:55:49.720Z,10.10
2023-03-18T06:58:40.941Z,10.20
2023-03-18T07:01:32.787Z,10.20
2023-03-18T07:04:23.869Z,10.20
2023-03-18T07:07:13.174Z,10.10
2023-03-18T07:10:02.520Z,10.10
2023-03-18T07:12:50.495Z,10.00
2023-03-18T07:15:39.317Z,10.10
2023-03-18T07:18:28.692Z,10.20
2023-03-18T07:21:16.856Z,10.20
2023-03-18T07:24:04.133Z,10.30
2023-03-18T07:26:52.323Z,10.40
2023-03-18T07:29:39.518Z,10.40
2023-03-18T07:32:26.645Z,10.40
2023-03-18T07:35:15.851Z,10.50
2023-03-18T07:38:06.143Z,10.60
2023-03-18T07:40:53.660Z,10.70
2023-03-18T07:43:41.274Z,10.80
2023-03-18T07:46:28.909Z,11.00
2023-03-18T07:49:16.735Z,11.10
2023-03-18T07:52:05.898Z,11.30
2023-03-18T07:54:54.041Z,11.50
2023-03-18T07:57:41.975Z,11.50
2023-03-18T08:00:29.642Z,11.50
2023-03-18T08:03:17.287Z,11.60
2023-03-18T08:06:05.706Z,11.60
2023-03-18T08:08:54.778Z,11.50
2023-03-18T08:11:42.519Z,11.30
2023-03-18T08:14:30.367Z,11.40
2023-03-18T08:17:17.454Z,11.40
2023-03-18T08:20:05.686Z,11.30
2023-03-18T08:22:53.659Z,11.50
2023-03-18T08:25:42.515Z,11.90
2023-03-18T08:28:30.286Z,12.50
2023-03-18T08:31:18.310Z,12.90
2023-03-18T08:34:05.918Z,13.50
2023-03-18T08:36:53.446Z,13.90
2023-03-18T08:39:41.371Z,13.60
2023-03-18T08:42:30.754Z,14.10
2023-03-18T08:45:19.416Z,13.90
2023-03-18T08:48:07.778Z,13.20
2023-03-18T08:50:55.989Z,13.00
2023-03-18T08:53:44.350Z,12.80
2023-03-18T08:56:31.661Z,12.90
2023-03-18T08:59:20.528Z,13.10
2023-03-18T09:02:07.609Z,13.20
2023-03-18T09:04:56.402Z,13.40
2023-03-18T09:07:43.786Z,13.40
2023-03-18T09:10:31.316Z,13.90
2023-03-18T09:13:19.291Z,14.60
2023-03-18T09:16:09.831Z,13.70
2023-03-18T09:18:57.427Z,13.60
2023-03-18T09:21:44.994Z,13.50
2023-03-18T09:24:33.008Z,13.30
2023-03-18T09:27:20.745Z,13.20
2023-03-18T09:30:09.469Z,13.20
2023-03-18T09:32:57.984Z,13.30
2023-03-18T09:35:45.882Z,13.40
2023-03-18T09:38:33.812Z,13.40
2023-03-18T09:41:35.454Z,13.40
2023-03-18T09:44:25.215Z,13.30
2023-03-18T09:47:27.215Z,13.40
2023-03-18T09:50:29.171Z,13.40
2023-03-18T09:53:23.935Z,13.30
2023-03-18T09:56:18.074Z,13.30
2023-03-18T09:59:08.959Z,13.30
2023-03-18T10:01:58.187Z,13.40
2023-03-18T10:04:49.752Z,13.30
2023-03-18T10:07:42.865Z,13.40
2023-03-18T10:10:33.076Z,13.40
2023-03-18T10:13:29.840Z,13.60
2023-03-18T10:16:22.979Z,13.70
2023-03-18T10:19:10.273Z,13.40
2023-03-18T10:22:09.551Z,13.20
2023-03-18T10:25:07.069Z,13.10
2023-03-18T10:28:06.958Z,13.20
2023-03-18T10:31:03.017Z,13.50
2023-03-18T10:33:58.758Z,13.50
2023-03-18T10:36:52.200Z,13.50
2023-03-18T10:39:41.299Z,13.60
2023-03-18T10:42:32.959Z,13.60
2023-03-18T10:45:24.790Z,13.30
2023-03-18T10:48:16.699Z,13.30
2023-03-18T10:51:13.775Z,13.10
2023-03-18T10:54:07.576Z,13.10
2023-03-18T10:56:55.971Z,13.10
2023-03-18T10:59:45.447Z,13.00
2023-03-18T11:02:36.483Z,13.00
2023-03-18T11:05:26.740Z,13.00
2023-03-18T11:08:34.981Z,13.10
2023-03-18T11:11:27.373Z,13.10
2023-03-18T11:14:18.203Z,13.00
2023-03-18T11:17:20.109Z,13.00
2023-03-18T11:20:21.054Z,13.00
2023-03-18T11:23:17.685Z,13.00
2023-03-18T11:26:09.857Z,13.10
2023-03-18T11:28:59.487Z,13.10
2023-03-18T11:31:51.991Z,13.10
2023-03-18T11:34:40.738Z,13.10
2023-03-18T11:37:31.891Z,13.20
2023-03-18T11:40:25.852Z,13.20
2023-03-18T11:43:20.627Z,13.10
2023-03-18T11:46:10.608Z,13.30
2023-03-18T11:48:58.338Z,13.50
2023-03-18T11:51:56.041Z,13.90
2023-03-18T11:55:10.832Z,14.30
2023-03-18T11:58:15.727Z,14.70
2023-03-18T12:01:08.122Z,15.00
2023-03-18T12:04:41.005Z,15.30
2023-03-18T12:07:50.826Z,15.00
2023-03-18T12:10:41.964Z,14.50
2023-03-18T12:13:39.815Z,14.60
2023-03-18T12:16:41.592Z,14.80
2023-03-18T12:20:12.946Z,15.00
2023-03-18T12:23:11.323Z,14.90
2023-03-18T12:26:08.468Z,15.10
2023-03-18T12:29:24.592Z,15.30
2023-03-18T12:32:25.028Z,15.30
2023-03-18T12:35:29.015Z,15.60
2023-03-18T12:38:43.343Z,15.80
2023-03-18T12:41:38.487Z,15.80
2023-03-18T12:44:39.233Z,15.70
2023-03-18T12:47:31.771Z,15.40
2023-03-18T12:50:25.448Z,15.80
2023-03-18T12:53:16.790Z,15.90
2023-03-18T12:56:11.488Z,15.50
2023-03-18T12:59:07.547Z,15.70
2023-03-18T13:02:17.554Z,15.30
2023-03-18T13:05:08.784Z,15.60
2023-03-18T13:08:19.743Z,15.70
2023-03-18T13:11:15.543Z,15.70
2023-03-18T13:14:06.896Z,15.90
2023-03-18T13:16:56.344Z,16.00
2023-03-18T13:19:44.592Z,15.90
2023-03-18T13:22:53.494Z,16.00
2023-03-18T13:25:51.733Z,16.40
2023-03-18T13:28:50.534Z,16.10
2023-03-18T13:31:49.730Z,16.20
2023-03-18T13:35:06.347Z,15.90
2023-03-18T13:38:18.322Z,15.50
2023-03-18T13:41:32.795Z,15.50
2023-03-18T13:44:26.462Z,15.90
2023-03-18T13:47:18.714Z,16.20
2023-03-18T13:50:08.901Z,16.20
2023-03-18T13:52:58.508Z,16.50
2023-03-18T13:55:50.407Z,16.80
2023-03-18T13:58:47.751Z,16.80
2023-03-18T14:01:49.180Z,16.40
2023-03-18T14:04:47.352Z,15.80
2023-03-18T14:07:47.890Z,15.70
2023-03-18T14:10:35.592Z,15.80
2023-03-18T14:13:29.278Z,15.80
2023-03-18T14:16:20.461Z,15.50
2023-03-18T14:19:19.114Z,15.50
2023-03-18T14:22:16.848Z,15.50
2023-03-18T14:25:40.038Z,15.70
2023-03-18T14:28:28.613Z,15.90
2023-03-18T14:31:27.821Z,15.90
2023-03-18T14:34:34.974Z,15.80
2023-03-18T14:37:30.823Z,16.10
2023-03-18T14:40:19.252Z,16.30
2023-03-18T14:43:12.298Z,16.50
2023-03-18T14:46:03.910Z,16.40
2023-03-18T14:48:54.705Z,16.50
2023-03-18T14:51:43.777Z,16.50
2023-03-18T14:54:36.971Z,16.20
2023-03-18T14:57:27.817Z,16.10
2023-03-18T15:00:19.203Z,15.90
2023-03-18T15:03:10.399Z,15.90
2023-03-18T15:06:00.554Z,16.00
2023-03-18T15:08:54.404Z,16.00
2023-03-18T15:11:44.439Z,16.00
2023-03-18T15:14:34.357Z,15.80
2023-03-18T15:17:21.669Z,15.80
2023-03-18T15:20:14.400Z,15.70
2023-03-18T15:23:10.103Z,15.80
2023-03-18T15:26:00.588Z,15.80
2023-03-18T15:28:48.728Z,15.90
2023-03-18T15:31:41.441Z,15.70
2023-03-18T15:34:31.702Z,15.80
2023-03-18T15:37:36.372Z,15.80
2023-03-18T15:40:31.428Z,15.80
2023-03-18T15:43:35.609Z,15.90
2023-03-18T15:46:27.546Z,16.20
2023-03-18T15:49:15.100Z,16.30
2023-03-18T15:52:04.057Z,16.10
2023-03-18T15:54:51.960Z,15.90
2023-03-18T15:57:40.716Z,15.90
2023-03-18T16:00:30.229Z,15.90
2023-03-18T16:03:21.925Z,15.80
2023-03-18T16:06:11.789Z,15.70
2023-03-18T16:08:58.874Z,15.70
2023-03-18T16:11:50.612Z,15.70
2023-03-18T16:14:42.050Z,15.60
2023-03-18T16:17:30.567Z,15.60
2023-03-18T16:20:20.670Z,15.60
2023-03-18T16:23:08.149Z,15.60
2023-03-18T16:25:57.026Z,15.60
2023-03-18T16:28:47.080Z,15.40
2023-03-18T16:31:35.408Z,15.50
2023-03-18T16:34:24.639Z,15.40
2023-03-18T16:37:20.608Z,15.30
2023-03-18T16:40:16.141Z,15.40
2023-03-18T16:43:03.206Z,15.40
2023-03-18T16:45:52.119Z,15.50
2023-03-18T16:48:39.671Z,15.50
2023-03-18T16:51:28.400Z,15.50
2023-03-18T16:54:21.122Z,15.40
2023-03-18T16:57:16.706Z,15.40
2023-03-18T17:00:07.262Z,15.40
2023-03-18T17:02:55.599Z,15.40
2023-03-18T17:05:42.815Z,15.20
2023-03-18T17:08:31.515Z,15.10
2023-03-18T17:11:21.359Z,15.10
2023-03-18T17:14:11.234Z,15.10
2023-03-18T17:17:00.633Z,15.00
2023-03-18T17:19:48.555Z,15.00
2023-03-18T17:22:36.113Z,15.00
2023-03-18T17:25:27.537Z,15.00
2023-03-18T17:28:20.332Z,14.80
2023-03-18T17:31:08.085Z,14.90
2023-03-18T17:33:55.928Z,14.80
2023-03-18T17:36:43.309Z,14.90
2023-03-18T17:39:31.082Z,14.90
2023-03-18T17:42:35.947Z,15.00
2023-03-18T17:45:28.385Z,15.00
2023-03-18T17:48:19.931Z,14.90
2023-03-18T17:51:12.680Z,14.60
2023-03-18T17:54:02.277Z,14.40
2023-03-18T17:56:49.848Z,14.30
2023-03-18T17:59:38.710Z,13.40
2023-03-18T18:02:26.275Z,12.70
2023-03-18T18:05:17.824Z,12.60
2023-03-18T18:08:09.953Z,12.50
2023-03-18T18:11:04.975Z,12.30
2023-03-18T18:13:56.470Z,12.20
2023-03-18T18:16:45.184Z,12.20
2023-03-18T18:19:33.843Z,12.10
2023-03-18T18:22:25.884Z,12.00
2023-03-18T18:25:18.523Z,12.00
2023-03-18T18:28:11.893Z,12.00
2023-03-18T18:30:59.836Z,12.00
2023-03-18T18:33:50.483Z,12.20
2023-03-18T18:36:37.937Z,12.30
2023-03-18T18:39:24.917Z,12.50
2023-03-18T18:42:12.503Z,12.70
2023-03-18T18:44:59.860Z,12.60
2023-03-18T18:47:47.594Z,12.40
2023-03-18T18:50:36.950Z,12.30
2023-03-18T18:53:26.317Z,12.30
2023-03-18T18:56:18.575Z,12.50
2023-03-18T18:59:23.059Z,12.70
2023-03-18T19:02:30.009Z,12.60
2023-03-18T19:05:17.666Z,12.50
2023-03-18T19:08:07.330Z,12.50
2023-03-18T19:10:56.488Z,12.60
2023-03-18T19:13:44.969Z,12.50
2023-03-18T19:16:33.961Z,12.50
2023-03-18T19:19:23.177Z,12.00
2023-03-18T19:22:14.412Z,11.80
2023-03-18T19:25:03.929Z,11.70
2023-03-18T19:27:51.385Z,11.70
2023-03-18T19:30:38.576Z,11.90
2023-03-18T19:33:26.646Z,12.00
2023-03-18T19:36:21.745Z,11.90
2023-03-18T19:39:15.408Z,12.10
2023-03-18T19:42:03.556Z,12.10
2023-03-18T19:44:51.020Z,12.10
2023-03-18T19:47:38.750Z,12.10
2023-03-18T19:50:25.859Z,12.30
2023-03-18T19:53:14.190Z,12.30
2023-03-18T19:56:03.633Z,12.30
2023-03-18T19:58:53.557Z,12.00
2023-03-18T20:01:41.045Z,11.90
2023-03-18T20:04:30.153Z,12.10
2023-03-18T20:07:18.250Z,12.20
2023-03-18T20:10:08.605Z,12.10
2023-03-18T20:12:55.538Z,12.20
2023-03-18T20:15:45.146Z,12.30
2023-03-18T20:18:32.751Z,12.40
2023-03-18T20:21:28.102Z,12.10
2023-03-18T20:24:17.545Z,12.10
2023-03-18T20:27:05.570Z,12.30
2023-03-18T20:29:53.189Z,12.30
2023-03-18T20:32:42.877Z,12.50
2023-03-18T20:35:32.845Z,12.20
2023-03-18T20:38:26.981Z,12.00
2023-03-18T20:41:17.395Z,11.70
2023-03-18T20:44:04.467Z,11.60
2023-03-18T20:46:52.119Z,11.50
2023-03-18T20:49:44.533Z,11.40
2023-03-18T20:52:32.169Z,11.20
2023-03-18T20:55:25.361Z,11.20
2023-03-18T20:58:16.132Z,11.20
2023-03-18T21:01:03.696Z,11.20
2023-03-18T21:03:51.074Z,11.20
2023-03-18T21:06:40.183Z,11.20
2023-03-18T21:09:27.097Z,11.10
2023-03-18T21:12:18.425Z,10.90
2023-03-18T21:15:08.020Z,10.80
2023-03-18T21:17:56.503Z,10.60
2023-03-18T21:20:44.851Z,10.60
2023-03-18T21:23:36.954Z,10.50
2023-03-18T23:25:14.483Z,10.70
2023-03-18T23:28:02.696Z,10.60
2023-03-18T23:30:52.454Z,10.60
2023-03-18T23:33:40.164Z,10.60
2023-03-18T23:36:27.531Z,10.50
2023-03-18T23:39:16.301Z,10.50
2023-03-18T23:42:04.180Z,10.50
2023-03-18T23:44:51.673Z,10.50
2023-03-18T23:47:39.064Z,10.40
2023-03-18T23:50:27.251Z,10.50
2023-03-18T23:53:16.305Z,10.50
2023-03-18T23:56:05.684Z,10.50
2023-03-18T23:58:53.131Z,10.50
